sensor_id;sensor_type;location;lat;lon;timestamp;P1;durP1;ratioP1;P2;durP2;ratioP2
52124;SDS011;38119;52.710;6.398;2022-09-23T00:01:31;14.40;;;12.63;;
52124;SDS011;38119;52.710;6.398;2022-09-23T00:03:58;15.98;;;12.43;;
52124;SDS011;38119;52.710;6.398;2022-09-23T00:06:24;16.75;;;11.57;;
52124;SDS011;38119;52.710;6.398;2022-09-23T00:08:52;15.15;;;11.73;;
52124;SDS011;38119;52.710;6.398;2022-09-23T00:11:27;15.88;;;12.20;;
52124;SDS011;38119;52.710;6.398;2022-09-23T00:13:54;16.10;;;12.07;;
52124;SDS011;38119;52.710;6.398;2022-09-23T00:16:23;14.57;;;11.38;;
52124;SDS011;38119;52.710;6.398;2022-09-23T00:21:20;13.40;;;11.57;;
52124;SDS011;38119;52.710;6.398;2022-09-23T00:23:46;13.88;;;11.65;;
52124;SDS011;38119;52.710;6.398;2022-09-23T00:26:13;17.15;;;12.10;;
52124;SDS011;38119;52.710;6.398;2022-09-23T00:28:40;15.15;;;11.60;;
52124;SDS011;38119;52.710;6.398;2022-09-23T00:31:07;15.07;;;11.27;;
52124;SDS011;38119;52.710;6.398;2022-09-23T00:33:38;16.95;;;12.00;;
52124;SDS011;38119;52.710;6.398;2022-09-23T00:36:08;16.08;;;11.77;;
52124;SDS011;38119;52.710;6.398;2022-09-23T00:38:35;14.18;;;11.35;;
52124;SDS011;38119;52.710;6.398;2022-09-23T00:41:01;15.18;;;11.35;;
52124;SDS011;38119;52.710;6.398;2022-09-23T00:43:41;14.07;;;11.98;;
52124;SDS011;38119;52.710;6.398;2022-09-23T00:46:09;14.90;;;11.02;;
52124;SDS011;38119;52.710;6.398;2022-09-23T00:48:38;13.80;;;11.43;;
52124;SDS011;38119;52.710;6.398;2022-09-23T00:51:07;15.18;;;11.57;;
52124;SDS011;38119;52.710;6.398;2022-09-23T00:53:35;16.15;;;11.43;;
52124;SDS011;38119;52.710;6.398;2022-09-23T00:56:03;14.52;;;11.23;;
52124;SDS011;38119;52.710;6.398;2022-09-23T00:58:32;15.38;;;11.32;;
52124;SDS011;38119;52.710;6.398;2022-09-23T01:01:01;16.17;;;11.70;;
52124;SDS011;38119;52.710;6.398;2022-09-23T01:03:28;16.25;;;11.80;;
52124;SDS011;38119;52.710;6.398;2022-09-23T01:05:53;13.35;;;10.60;;
52124;SDS011;38119;52.710;6.398;2022-09-23T01:08:20;15.68;;;12.30;;
52124;SDS011;38119;52.710;6.398;2022-09-23T01:16:30;17.00;;;11.30;;
52124;SDS011;38119;52.710;6.398;2022-09-23T01:24:54;16.88;;;11.32;;
52124;SDS011;38119;52.710;6.398;2022-09-23T01:27:50;16.87;;;12.13;;
52124;SDS011;38119;52.710;6.398;2022-09-23T01:46:37;16.08;;;11.85;;
52124;SDS011;38119;52.710;6.398;2022-09-23T01:49:11;17.42;;;12.75;;
52124;SDS011;38119;52.710;6.398;2022-09-23T01:51:56;16.20;;;12.77;;
52124;SDS011;38119;52.710;6.398;2022-09-23T01:54:37;14.98;;;11.88;;
52124;SDS011;38119;52.710;6.398;2022-09-23T01:57:17;14.60;;;12.05;;
52124;SDS011;38119;52.710;6.398;2022-09-23T02:00:03;15.75;;;12.18;;
52124;SDS011;38119;52.710;6.398;2022-09-23T02:02:51;16.23;;;12.55;;
52124;SDS011;38119;52.710;6.398;2022-09-23T02:05:33;14.73;;;12.70;;
52124;SDS011;38119;52.710;6.398;2022-09-23T02:08:13;15.88;;;13.15;;
52124;SDS011;38119;52.710;6.398;2022-09-23T02:10:54;15.85;;;12.43;;
52124;SDS011;38119;52.710;6.398;2022-09-23T02:13:39;16.08;;;13.15;;
52124;SDS011;38119;52.710;6.398;2022-09-23T02:16:19;15.50;;;13.07;;
52124;SDS011;38119;52.710;6.398;2022-09-23T02:21:23;16.98;;;12.93;;
52124;SDS011;38119;52.710;6.398;2022-09-23T02:23:56;18.65;;;13.85;;
52124;SDS011;38119;52.710;6.398;2022-09-23T02:29:18;16.42;;;13.13;;
52124;SDS011;38119;52.710;6.398;2022-09-23T02:31:49;15.63;;;12.68;;
52124;SDS011;38119;52.710;6.398;2022-09-23T02:34:38;15.45;;;12.95;;
52124;SDS011;38119;52.710;6.398;2022-09-23T02:45:27;17.55;;;13.32;;
52124;SDS011;38119;52.710;6.398;2022-09-23T02:47:55;16.08;;;13.63;;
52124;SDS011;38119;52.710;6.398;2022-09-23T02:50:27;17.83;;;13.52;;
52124;SDS011;38119;52.710;6.398;2022-09-23T02:52:54;17.60;;;12.90;;
52124;SDS011;38119;52.710;6.398;2022-09-23T02:55:22;17.85;;;13.55;;
52124;SDS011;38119;52.710;6.398;2022-09-23T02:57:49;16.52;;;13.57;;
52124;SDS011;38119;52.710;6.398;2022-09-23T03:00:17;17.63;;;13.18;;
52124;SDS011;38119;52.710;6.398;2022-09-23T03:02:51;18.08;;;13.23;;
52124;SDS011;38119;52.710;6.398;2022-09-23T03:05:45;17.42;;;13.75;;
52124;SDS011;38119;52.710;6.398;2022-09-23T03:08:31;16.85;;;13.30;;
52124;SDS011;38119;52.710;6.398;2022-09-23T03:11:17;15.50;;;13.43;;
52124;SDS011;38119;52.710;6.398;2022-09-23T03:16:42;19.08;;;14.00;;
52124;SDS011;38119;52.710;6.398;2022-09-23T03:19:25;17.90;;;13.65;;
52124;SDS011;38119;52.710;6.398;2022-09-23T03:22:01;15.65;;;13.95;;
52124;SDS011;38119;52.710;6.398;2022-09-23T03:24:31;16.70;;;13.40;;
52124;SDS011;38119;52.710;6.398;2022-09-23T03:26:59;14.80;;;13.05;;
52124;SDS011;38119;52.710;6.398;2022-09-23T03:29:29;17.40;;;13.50;;
52124;SDS011;38119;52.710;6.398;2022-09-23T03:31:56;15.95;;;12.80;;
52124;SDS011;38119;52.710;6.398;2022-09-23T03:34:25;16.38;;;13.23;;
52124;SDS011;38119;52.710;6.398;2022-09-23T03:37:00;16.70;;;13.32;;
52124;SDS011;38119;52.710;6.398;2022-09-23T03:42:08;16.20;;;12.90;;
52124;SDS011;38119;52.710;6.398;2022-09-23T03:44:46;18.63;;;12.55;;
52124;SDS011;38119;52.710;6.398;2022-09-23T03:47:13;17.50;;;12.93;;
52124;SDS011;38119;52.710;6.398;2022-09-23T03:49:41;17.33;;;13.43;;
52124;SDS011;38119;52.710;6.398;2022-09-23T03:52:09;14.13;;;12.40;;
52124;SDS011;38119;52.710;6.398;2022-09-23T03:54:35;16.55;;;12.60;;
52124;SDS011;38119;52.710;6.398;2022-09-23T03:57:01;15.93;;;12.32;;
52124;SDS011;38119;52.710;6.398;2022-09-23T03:59:27;17.88;;;12.77;;
52124;SDS011;38119;52.710;6.398;2022-09-23T04:01:54;15.35;;;12.70;;
52124;SDS011;38119;52.710;6.398;2022-09-23T04:04:21;15.38;;;12.40;;
52124;SDS011;38119;52.710;6.398;2022-09-23T04:06:47;17.23;;;13.02;;
52124;SDS011;38119;52.710;6.398;2022-09-23T04:09:12;16.38;;;12.40;;
52124;SDS011;38119;52.710;6.398;2022-09-23T04:11:38;15.00;;;12.43;;
52124;SDS011;38119;52.710;6.398;2022-09-23T04:14:04;17.20;;;12.90;;
52124;SDS011;38119;52.710;6.398;2022-09-23T04:16:29;15.35;;;11.73;;
52124;SDS011;38119;52.710;6.398;2022-09-23T04:18:55;16.27;;;12.43;;
52124;SDS011;38119;52.710;6.398;2022-09-23T04:21:21;17.80;;;13.00;;
52124;SDS011;38119;52.710;6.398;2022-09-23T04:23:46;16.98;;;12.90;;
52124;SDS011;38119;52.710;6.398;2022-09-23T04:26:12;16.85;;;12.75;;
52124;SDS011;38119;52.710;6.398;2022-09-23T04:28:38;16.98;;;13.15;;
52124;SDS011;38119;52.710;6.398;2022-09-23T04:31:05;16.50;;;13.00;;
52124;SDS011;38119;52.710;6.398;2022-09-23T04:33:32;19.48;;;12.75;;
52124;SDS011;38119;52.710;6.398;2022-09-23T04:35:58;15.38;;;12.90;;
52124;SDS011;38119;52.710;6.398;2022-09-23T04:38:24;14.55;;;12.32;;
52124;SDS011;38119;52.710;6.398;2022-09-23T04:40:49;16.63;;;12.70;;
52124;SDS011;38119;52.710;6.398;2022-09-23T04:43:15;18.90;;;13.23;;
52124;SDS011;38119;52.710;6.398;2022-09-23T04:45:41;16.50;;;12.77;;
52124;SDS011;38119;52.710;6.398;2022-09-23T04:48:08;16.50;;;12.65;;
52124;SDS011;38119;52.710;6.398;2022-09-23T04:50:34;17.27;;;12.73;;
52124;SDS011;38119;52.710;6.398;2022-09-23T04:53:02;16.15;;;12.27;;
52124;SDS011;38119;52.710;6.398;2022-09-23T04:55:28;15.27;;;12.32;;
52124;SDS011;38119;52.710;6.398;2022-09-23T04:57:54;16.88;;;12.13;;
52124;SDS011;38119;52.710;6.398;2022-09-23T05:00:20;16.65;;;12.75;;
52124;SDS011;38119;52.710;6.398;2022-09-23T05:02:47;16.20;;;12.52;;
52124;SDS011;38119;52.710;6.398;2022-09-23T05:05:15;17.90;;;12.98;;
52124;SDS011;38119;52.710;6.398;2022-09-23T05:07:45;16.95;;;12.60;;
52124;SDS011;38119;52.710;6.398;2022-09-23T05:10:15;16.88;;;13.02;;
52124;SDS011;38119;52.710;6.398;2022-09-23T05:12:41;15.18;;;12.68;;
52124;SDS011;38119;52.710;6.398;2022-09-23T05:15:07;16.85;;;12.95;;
52124;SDS011;38119;52.710;6.398;2022-09-23T05:17:33;16.23;;;12.60;;
52124;SDS011;38119;52.710;6.398;2022-09-23T05:19:58;15.65;;;12.50;;
52124;SDS011;38119;52.710;6.398;2022-09-23T05:22:24;20.15;;;12.98;;
52124;SDS011;38119;52.710;6.398;2022-09-23T05:24:52;17.83;;;12.32;;
52124;SDS011;38119;52.710;6.398;2022-09-23T05:27:19;16.33;;;13.02;;
52124;SDS011;38119;52.710;6.398;2022-09-23T05:29:45;17.75;;;12.73;;
52124;SDS011;38119;52.710;6.398;2022-09-23T05:32:11;20.23;;;13.02;;
52124;SDS011;38119;52.710;6.398;2022-09-23T05:34:38;16.05;;;12.73;;
52124;SDS011;38119;52.710;6.398;2022-09-23T05:37:04;19.85;;;12.88;;
52124;SDS011;38119;52.710;6.398;2022-09-23T05:39:29;16.85;;;12.73;;
52124;SDS011;38119;52.710;6.398;2022-09-23T05:41:55;16.92;;;12.85;;
52124;SDS011;38119;52.710;6.398;2022-09-23T05:44:20;16.13;;;12.75;;
52124;SDS011;38119;52.710;6.398;2022-09-23T05:46:46;19.70;;;12.82;;
52124;SDS011;38119;52.710;6.398;2022-09-23T05:49:12;18.63;;;12.65;;
52124;SDS011;38119;52.710;6.398;2022-09-23T05:51:37;19.73;;;12.70;;
52124;SDS011;38119;52.710;6.398;2022-09-23T05:54:03;15.70;;;12.75;;
52124;SDS011;38119;52.710;6.398;2022-09-23T05:56:30;17.08;;;12.90;;
52124;SDS011;38119;52.710;6.398;2022-09-23T05:58:58;17.65;;;13.07;;
52124;SDS011;38119;52.710;6.398;2022-09-23T06:01:26;18.17;;;13.55;;
52124;SDS011;38119;52.710;6.398;2022-09-23T06:03:53;16.65;;;12.85;;
52124;SDS011;38119;52.710;6.398;2022-09-23T06:06:22;16.65;;;13.10;;
52124;SDS011;38119;52.710;6.398;2022-09-23T06:08:51;20.50;;;12.57;;
52124;SDS011;38119;52.710;6.398;2022-09-23T06:11:17;17.98;;;13.27;;
52124;SDS011;38119;52.710;6.398;2022-09-23T06:13:43;16.10;;;13.10;;
52124;SDS011;38119;52.710;6.398;2022-09-23T06:16:13;17.52;;;12.60;;
52124;SDS011;38119;52.710;6.398;2022-09-23T06:18:40;17.95;;;13.10;;
52124;SDS011;38119;52.710;6.398;2022-09-23T06:21:07;15.30;;;12.27;;
52124;SDS011;38119;52.710;6.398;2022-09-23T06:23:36;14.90;;;11.70;;
52124;SDS011;38119;52.710;6.398;2022-09-23T06:26:03;15.20;;;12.20;;
52124;SDS011;38119;52.710;6.398;2022-09-23T06:28:33;16.98;;;12.02;;
52124;SDS011;38119;52.710;6.398;2022-09-23T06:31:01;14.00;;;11.02;;
52124;SDS011;38119;52.710;6.398;2022-09-23T06:33:28;17.50;;;12.57;;
52124;SDS011;38119;52.710;6.398;2022-09-23T06:36:01;15.55;;;11.85;;
52124;SDS011;38119;52.710;6.398;2022-09-23T06:38:29;14.25;;;11.07;;
52124;SDS011;38119;52.710;6.398;2022-09-23T06:40:56;16.65;;;12.40;;
52124;SDS011;38119;52.710;6.398;2022-09-23T06:43:22;15.10;;;12.25;;
52124;SDS011;38119;52.710;6.398;2022-09-23T06:45:55;19.05;;;11.30;;
52124;SDS011;38119;52.710;6.398;2022-09-23T06:48:22;17.02;;;11.55;;
52124;SDS011;38119;52.710;6.398;2022-09-23T06:50:49;15.35;;;11.48;;
52124;SDS011;38119;52.710;6.398;2022-09-23T06:53:16;18.98;;;11.52;;
52124;SDS011;38119;52.710;6.398;2022-09-23T06:55:42;14.02;;;11.13;;
52124;SDS011;38119;52.710;6.398;2022-09-23T06:58:07;14.20;;;10.77;;
52124;SDS011;38119;52.710;6.398;2022-09-23T07:00:34;14.32;;;11.30;;
52124;SDS011;38119;52.710;6.398;2022-09-23T07:03:00;14.63;;;11.05;;
52124;SDS011;38119;52.710;6.398;2022-09-23T07:05:29;13.38;;;11.05;;
52124;SDS011;38119;52.710;6.398;2022-09-23T07:07:55;14.90;;;11.23;;
52124;SDS011;38119;52.710;6.398;2022-09-23T07:10:21;15.05;;;10.73;;
52124;SDS011;38119;52.710;6.398;2022-09-23T07:12:46;12.40;;;9.75;;
52124;SDS011;38119;52.710;6.398;2022-09-23T07:15:12;14.93;;;11.20;;
52124;SDS011;38119;52.710;6.398;2022-09-23T07:17:40;16.58;;;10.75;;
52124;SDS011;38119;52.710;6.398;2022-09-23T07:20:07;15.57;;;10.77;;
52124;SDS011;38119;52.710;6.398;2022-09-23T07:22:35;13.77;;;10.38;;
52124;SDS011;38119;52.710;6.398;2022-09-23T07:25:02;13.63;;;10.95;;
52124;SDS011;38119;52.710;6.398;2022-09-23T07:27:28;13.55;;;10.05;;
52124;SDS011;38119;52.710;6.398;2022-09-23T07:29:54;13.90;;;9.95;;
52124;SDS011;38119;52.710;6.398;2022-09-23T07:32:20;14.15;;;10.15;;
52124;SDS011;38119;52.710;6.398;2022-09-23T07:34:47;14.23;;;9.50;;
52124;SDS011;38119;52.710;6.398;2022-09-23T07:37:13;14.23;;;10.27;;
52124;SDS011;38119;52.710;6.398;2022-09-23T07:39:40;13.18;;;10.00;;
52124;SDS011;38119;52.710;6.398;2022-09-23T07:42:07;13.75;;;9.63;;
52124;SDS011;38119;52.710;6.398;2022-09-23T07:44:33;13.65;;;9.90;;
52124;SDS011;38119;52.710;6.398;2022-09-23T07:46:59;14.75;;;10.50;;
52124;SDS011;38119;52.710;6.398;2022-09-23T07:49:26;13.30;;;10.30;;
52124;SDS011;38119;52.710;6.398;2022-09-23T07:51:52;14.15;;;9.38;;
52124;SDS011;38119;52.710;6.398;2022-09-23T07:54:18;11.90;;;9.48;;
52124;SDS011;38119;52.710;6.398;2022-09-23T07:56:44;13.73;;;10.07;;
52124;SDS011;38119;52.710;6.398;2022-09-23T07:59:12;14.35;;;9.73;;
52124;SDS011;38119;52.710;6.398;2022-09-23T08:01:42;14.75;;;10.02;;
52124;SDS011;38119;52.710;6.398;2022-09-23T08:04:14;16.77;;;9.38;;
52124;SDS011;38119;52.710;6.398;2022-09-23T08:06:49;14.05;;;10.15;;
52124;SDS011;38119;52.710;6.398;2022-09-23T08:09:18;13.30;;;9.85;;
52124;SDS011;38119;52.710;6.398;2022-09-23T08:11:45;14.15;;;10.43;;
52124;SDS011;38119;52.710;6.398;2022-09-23T08:14:12;12.40;;;9.90;;
52124;SDS011;38119;52.710;6.398;2022-09-23T08:16:40;13.23;;;9.75;;
52124;SDS011;38119;52.710;6.398;2022-09-23T08:19:06;13.57;;;9.95;;
52124;SDS011;38119;52.710;6.398;2022-09-23T08:21:33;13.48;;;9.23;;
52124;SDS011;38119;52.710;6.398;2022-09-23T08:23:58;17.63;;;10.00;;
52124;SDS011;38119;52.710;6.398;2022-09-23T08:26:24;13.18;;;9.60;;
52124;SDS011;38119;52.710;6.398;2022-09-23T08:28:50;13.82;;;9.60;;
52124;SDS011;38119;52.710;6.398;2022-09-23T08:31:20;14.00;;;9.88;;
52124;SDS011;38119;52.710;6.398;2022-09-23T08:33:47;13.65;;;10.05;;
52124;SDS011;38119;52.710;6.398;2022-09-23T08:36:17;16.10;;;10.27;;
52124;SDS011;38119;52.710;6.398;2022-09-23T08:38:42;11.60;;;9.18;;
52124;SDS011;38119;52.710;6.398;2022-09-23T08:41:12;14.68;;;9.02;;
52124;SDS011;38119;52.710;6.398;2022-09-23T08:43:48;15.35;;;9.80;;
52124;SDS011;38119;52.710;6.398;2022-09-23T08:46:20;15.48;;;9.65;;
52124;SDS011;38119;52.710;6.398;2022-09-23T08:48:50;12.93;;;9.73;;
52124;SDS011;38119;52.710;6.398;2022-09-23T08:51:19;13.50;;;9.63;;
52124;SDS011;38119;52.710;6.398;2022-09-23T08:53:53;12.60;;;9.63;;
52124;SDS011;38119;52.710;6.398;2022-09-23T08:56:20;14.43;;;9.95;;
52124;SDS011;38119;52.710;6.398;2022-09-23T09:09:38;11.27;;;9.32;;
52124;SDS011;38119;52.710;6.398;2022-09-23T09:12:39;13.05;;;9.85;;
52124;SDS011;38119;52.710;6.398;2022-09-23T09:15:18;12.07;;;9.32;;
52124;SDS011;38119;52.710;6.398;2022-09-23T09:18:00;13.15;;;8.90;;
52124;SDS011;38119;52.710;6.398;2022-09-23T09:25:53;14.43;;;10.07;;
52124;SDS011;38119;52.710;6.398;2022-09-23T09:29:08;12.82;;;9.00;;
52124;SDS011;38119;52.710;6.398;2022-09-23T09:33:50;12.88;;;8.93;;
52124;SDS011;38119;52.710;6.398;2022-09-23T09:39:29;11.15;;;8.52;;
52124;SDS011;38119;52.710;6.398;2022-09-23T09:41:55;11.43;;;9.25;;
52124;SDS011;38119;52.710;6.398;2022-09-23T09:49:54;9.90;;;8.18;;
52124;SDS011;38119;52.710;6.398;2022-09-23T09:52:25;12.05;;;9.00;;
52124;SDS011;38119;52.710;6.398;2022-09-23T09:55:14;12.73;;;9.27;;
52124;SDS011;38119;52.710;6.398;2022-09-23T09:57:52;13.07;;;9.27;;
52124;SDS011;38119;52.710;6.398;2022-09-23T10:02:51;14.07;;;9.75;;
52124;SDS011;38119;52.710;6.398;2022-09-23T10:05:25;13.07;;;9.27;;
52124;SDS011;38119;52.710;6.398;2022-09-23T10:07:52;13.15;;;8.73;;
52124;SDS011;38119;52.710;6.398;2022-09-23T10:10:20;13.82;;;9.23;;
52124;SDS011;38119;52.710;6.398;2022-09-23T10:12:48;13.45;;;9.43;;
52124;SDS011;38119;52.710;6.398;2022-09-23T10:15:31;12.88;;;8.80;;
52124;SDS011;38119;52.710;6.398;2022-09-23T10:20:59;10.93;;;8.93;;
52124;SDS011;38119;52.710;6.398;2022-09-23T10:23:26;11.18;;;9.10;;
52124;SDS011;38119;52.710;6.398;2022-09-23T10:26:00;11.32;;;8.30;;
52124;SDS011;38119;52.710;6.398;2022-09-23T10:31:03;11.18;;;9.23;;
52124;SDS011;38119;52.710;6.398;2022-09-23T10:33:51;12.43;;;8.68;;
52124;SDS011;38119;52.710;6.398;2022-09-23T10:36:25;13.23;;;8.40;;
52124;SDS011;38119;52.710;6.398;2022-09-23T10:38:52;12.82;;;8.63;;
52124;SDS011;38119;52.710;6.398;2022-09-23T10:41:43;16.38;;;8.25;;
52124;SDS011;38119;52.710;6.398;2022-09-23T10:45:25;11.52;;;8.30;;
52124;SDS011;38119;52.710;6.398;2022-09-23T10:50:34;11.18;;;7.80;;
52124;SDS011;38119;52.710;6.398;2022-09-23T11:24:28;12.60;;;7.85;;
52124;SDS011;38119;52.710;6.398;2022-09-23T11:30:06;13.45;;;7.90;;
52124;SDS011;38119;52.710;6.398;2022-09-23T11:32:37;9.95;;;8.35;;
52124;SDS011;38119;52.710;6.398;2022-09-23T11:35:26;11.23;;;8.07;;
52124;SDS011;38119;52.710;6.398;2022-09-23T11:38:04;11.50;;;7.63;;
52124;SDS011;38119;52.710;6.398;2022-09-23T11:40:37;16.33;;;9.07;;
52124;SDS011;38119;52.710;6.398;2022-09-23T11:43:23;12.13;;;8.57;;
52124;SDS011;38119;52.710;6.398;2022-09-23T11:48:21;15.20;;;9.02;;
52124;SDS011;38119;52.710;6.398;2022-09-23T11:56:15;13.40;;;8.25;;
52124;SDS011;38119;52.710;6.398;2022-09-23T11:59:05;13.05;;;8.82;;
52124;SDS011;38119;52.710;6.398;2022-09-23T12:01:47;12.93;;;8.40;;
52124;SDS011;38119;52.710;6.398;2022-09-23T12:12:31;12.00;;;7.72;;
52124;SDS011;38119;52.710;6.398;2022-09-23T12:21:00;11.05;;;7.55;;
52124;SDS011;38119;52.710;6.398;2022-09-23T12:25:58;10.90;;;7.43;;
52124;SDS011;38119;52.710;6.398;2022-09-23T12:28:33;11.88;;;6.75;;
52124;SDS011;38119;52.710;6.398;2022-09-23T12:31:02;10.30;;;7.13;;
52124;SDS011;38119;52.710;6.398;2022-09-23T12:33:32;8.50;;;6.70;;
52124;SDS011;38119;52.710;6.398;2022-09-23T12:38:50;11.25;;;6.95;;
52124;SDS011;38119;52.710;6.398;2022-09-23T12:41:18;11.30;;;6.63;;
52124;SDS011;38119;52.710;6.398;2022-09-23T12:46:37;8.20;;;6.63;;
52124;SDS011;38119;52.710;6.398;2022-09-23T12:49:22;9.52;;;6.05;;
52124;SDS011;38119;52.710;6.398;2022-09-23T12:52:41;9.95;;;6.20;;
52124;SDS011;38119;52.710;6.398;2022-09-23T12:54:42;10.52;;;6.20;;
52124;SDS011;38119;52.710;6.398;2022-09-23T13:02:37;10.85;;;7.40;;
52124;SDS011;38119;52.710;6.398;2022-09-23T13:08:17;12.48;;;7.00;;
52124;SDS011;38119;52.710;6.398;2022-09-23T13:10:47;10.82;;;7.03;;
52124;SDS011;38119;52.710;6.398;2022-09-23T13:13:21;13.88;;;7.20;;
52124;SDS011;38119;52.710;6.398;2022-09-23T13:16:08;11.65;;;6.97;;
52124;SDS011;38119;52.710;6.398;2022-09-23T13:24:54;10.73;;;7.03;;
52124;SDS011;38119;52.710;6.398;2022-09-23T13:29:36;14.73;;;7.22;;
52124;SDS011;38119;52.710;6.398;2022-09-23T13:32:14;10.25;;;6.70;;
52124;SDS011;38119;52.710;6.398;2022-09-23T13:34:42;10.52;;;7.28;;
52124;SDS011;38119;52.710;6.398;2022-09-23T13:40:18;10.48;;;7.10;;
52124;SDS011;38119;52.710;6.398;2022-09-23T13:42:46;10.70;;;7.53;;
52124;SDS011;38119;52.710;6.398;2022-09-23T13:45:16;12.07;;;7.07;;
52124;SDS011;38119;52.710;6.398;2022-09-23T13:47:45;10.90;;;6.72;;
52124;SDS011;38119;52.710;6.398;2022-09-23T13:50:31;10.15;;;7.18;;
52124;SDS011;38119;52.710;6.398;2022-09-23T13:53:00;10.82;;;6.90;;
52124;SDS011;38119;52.710;6.398;2022-09-23T13:55:32;9.57;;;7.10;;
52124;SDS011;38119;52.710;6.398;2022-09-23T13:58:19;11.40;;;6.88;;
52124;SDS011;38119;52.710;6.398;2022-09-23T14:00:48;10.10;;;6.73;;
52124;SDS011;38119;52.710;6.398;2022-09-23T14:03:24;12.50;;;7.65;;
52124;SDS011;38119;52.710;6.398;2022-09-23T14:06:00;10.07;;;7.00;;
52124;SDS011;38119;52.710;6.398;2022-09-23T14:08:33;17.13;;;7.60;;
52124;SDS011;38119;52.710;6.398;2022-09-23T14:10:59;14.00;;;7.90;;
52124;SDS011;38119;52.710;6.398;2022-09-23T14:13:28;10.25;;;7.57;;
52124;SDS011;38119;52.710;6.398;2022-09-23T14:15:59;12.73;;;8.00;;
52124;SDS011;38119;52.710;6.398;2022-09-23T14:21:04;9.85;;;7.25;;
52124;SDS011;38119;52.710;6.398;2022-09-23T14:23:31;11.52;;;7.70;;
52124;SDS011;38119;52.710;6.398;2022-09-23T14:25:57;11.07;;;7.65;;
52124;SDS011;38119;52.710;6.398;2022-09-23T14:28:25;10.13;;;7.47;;
52124;SDS011;38119;52.710;6.398;2022-09-23T14:30:53;12.02;;;7.20;;
52124;SDS011;38119;52.710;6.398;2022-09-23T14:33:24;13.27;;;7.97;;
52124;SDS011;38119;52.710;6.398;2022-09-23T14:35:53;12.40;;;7.50;;
52124;SDS011;38119;52.710;6.398;2022-09-23T14:38:28;14.10;;;8.27;;
52124;SDS011;38119;52.710;6.398;2022-09-23T14:41:20;11.77;;;7.80;;
52124;SDS011;38119;52.710;6.398;2022-09-23T14:43:49;10.40;;;6.93;;
52124;SDS011;38119;52.710;6.398;2022-09-23T14:46:19;10.70;;;7.63;;
52124;SDS011;38119;52.710;6.398;2022-09-23T14:51:57;9.88;;;7.40;;
52124;SDS011;38119;52.710;6.398;2022-09-23T14:59:51;10.60;;;6.75;;
52124;SDS011;38119;52.710;6.398;2022-09-23T15:02:29;10.43;;;7.35;;
52124;SDS011;38119;52.710;6.398;2022-09-23T15:07:39;10.85;;;7.80;;
52124;SDS011;38119;52.710;6.398;2022-09-23T15:10:07;13.07;;;8.60;;
52124;SDS011;38119;52.710;6.398;2022-09-23T15:12:40;12.35;;;8.23;;
52124;SDS011;38119;52.710;6.398;2022-09-23T15:15:10;12.90;;;8.07;;
52124;SDS011;38119;52.710;6.398;2022-09-23T15:17:37;11.85;;;7.72;;
52124;SDS011;38119;52.710;6.398;2022-09-23T15:22:31;14.85;;;8.73;;
52124;SDS011;38119;52.710;6.398;2022-09-23T15:25:12;12.15;;;8.57;;
52124;SDS011;38119;52.710;6.398;2022-09-23T15:27:41;12.18;;;8.48;;
52124;SDS011;38119;52.710;6.398;2022-09-23T15:30:48;12.48;;;8.18;;
52124;SDS011;38119;52.710;6.398;2022-09-23T15:33:14;11.73;;;8.40;;
52124;SDS011;38119;52.710;6.398;2022-09-23T15:35:44;11.85;;;8.70;;
52124;SDS011;38119;52.710;6.398;2022-09-23T15:38:11;15.43;;;8.65;;
52124;SDS011;38119;52.710;6.398;2022-09-23T15:40:37;10.70;;;8.40;;
52124;SDS011;38119;52.710;6.398;2022-09-23T15:45:43;18.55;;;9.30;;
52124;SDS011;38119;52.710;6.398;2022-09-23T15:48:17;12.30;;;8.85;;
52124;SDS011;38119;52.710;6.398;2022-09-23T15:50:55;13.85;;;8.80;;
52124;SDS011;38119;52.710;6.398;2022-09-23T15:53:25;14.02;;;9.23;;
52124;SDS011;38119;52.710;6.398;2022-09-23T15:55:52;13.15;;;8.90;;
52124;SDS011;38119;52.710;6.398;2022-09-23T15:58:18;12.45;;;8.75;;
52124;SDS011;38119;52.710;6.398;2022-09-23T16:00:46;11.82;;;8.75;;
52124;SDS011;38119;52.710;6.398;2022-09-23T16:03:16;13.98;;;8.90;;
52124;SDS011;38119;52.710;6.398;2022-09-23T16:05:43;12.43;;;8.73;;
52124;SDS011;38119;52.710;6.398;2022-09-23T16:08:10;12.25;;;8.48;;
52124;SDS011;38119;52.710;6.398;2022-09-23T16:10:37;15.95;;;8.55;;
52124;SDS011;38119;52.710;6.398;2022-09-23T16:13:03;14.07;;;8.50;;
52124;SDS011;38119;52.710;6.398;2022-09-23T16:15:31;10.90;;;8.18;;
52124;SDS011;38119;52.710;6.398;2022-09-23T16:17:57;11.00;;;7.88;;
52124;SDS011;38119;52.710;6.398;2022-09-23T16:20:24;11.65;;;7.95;;
52124;SDS011;38119;52.710;6.398;2022-09-23T16:23:01;17.08;;;8.25;;
52124;SDS011;38119;52.710;6.398;2022-09-23T16:25:29;13.02;;;8.32;;
52124;SDS011;38119;52.710;6.398;2022-09-23T16:28:01;11.88;;;7.97;;
52124;SDS011;38119;52.710;6.398;2022-09-23T16:30:29;9.70;;;7.78;;
52124;SDS011;38119;52.710;6.398;2022-09-23T16:32:56;11.80;;;7.80;;
52124;SDS011;38119;52.710;6.398;2022-09-23T16:35:23;14.40;;;10.00;;
52124;SDS011;38119;52.710;6.398;2022-09-23T16:37:50;15.93;;;10.13;;
52124;SDS011;38119;52.710;6.398;2022-09-23T16:40:17;14.63;;;9.90;;
52124;SDS011;38119;52.710;6.398;2022-09-23T16:42:45;15.18;;;11.00;;
52124;SDS011;38119;52.710;6.398;2022-09-23T16:45:16;13.80;;;10.52;;
52124;SDS011;38119;52.710;6.398;2022-09-23T16:47:46;14.48;;;10.93;;
52124;SDS011;38119;52.710;6.398;2022-09-23T16:50:14;15.02;;;11.60;;
52124;SDS011;38119;52.710;6.398;2022-09-23T16:52:41;15.90;;;11.48;;
52124;SDS011;38119;52.710;6.398;2022-09-23T16:55:08;17.75;;;12.05;;
52124;SDS011;38119;52.710;6.398;2022-09-23T16:57:36;16.52;;;11.13;;
52124;SDS011;38119;52.710;6.398;2022-09-23T17:00:04;15.52;;;11.00;;
52124;SDS011;38119;52.710;6.398;2022-09-23T17:02:54;19.25;;;9.68;;
52124;SDS011;38119;52.710;6.398;2022-09-23T17:05:38;14.77;;;9.65;;
52124;SDS011;38119;52.710;6.398;2022-09-23T17:08:03;11.65;;;9.02;;
52124;SDS011;38119;52.710;6.398;2022-09-23T17:10:32;12.07;;;8.63;;
52124;SDS011;38119;52.710;6.398;2022-09-23T17:12:57;12.45;;;8.52;;
52124;SDS011;38119;52.710;6.398;2022-09-23T17:15:24;12.07;;;8.20;;
52124;SDS011;38119;52.710;6.398;2022-09-23T17:17:50;12.35;;;8.27;;
52124;SDS011;38119;52.710;6.398;2022-09-23T17:20:15;13.82;;;8.30;;
52124;SDS011;38119;52.710;6.398;2022-09-23T17:22:41;13.60;;;8.55;;
52124;SDS011;38119;52.710;6.398;2022-09-23T17:25:07;13.45;;;8.25;;
52124;SDS011;38119;52.710;6.398;2022-09-23T17:27:33;11.00;;;8.32;;
52124;SDS011;38119;52.710;6.398;2022-09-23T17:30:01;9.80;;;7.63;;
52124;SDS011;38119;52.710;6.398;2022-09-23T17:32:27;12.10;;;8.07;;
52124;SDS011;38119;52.710;6.398;2022-09-23T17:34:52;13.27;;;8.05;;
52124;SDS011;38119;52.710;6.398;2022-09-23T17:37:18;13.68;;;8.85;;
52124;SDS011;38119;52.710;6.398;2022-09-23T17:39:44;11.50;;;8.35;;
52124;SDS011;38119;52.710;6.398;2022-09-23T17:42:10;12.40;;;8.52;;
52124;SDS011;38119;52.710;6.398;2022-09-23T17:44:35;13.43;;;8.10;;
52124;SDS011;38119;52.710;6.398;2022-09-23T17:47:01;14.15;;;8.68;;
52124;SDS011;38119;52.710;6.398;2022-09-23T17:49:30;14.73;;;8.55;;
52124;SDS011;38119;52.710;6.398;2022-09-23T17:51:59;10.07;;;7.57;;
52124;SDS011;38119;52.710;6.398;2022-09-23T17:56:57;13.98;;;8.10;;
52124;SDS011;38119;52.710;6.398;2022-09-23T17:59:24;12.57;;;8.75;;
52124;SDS011;38119;52.710;6.398;2022-09-23T18:01:50;13.68;;;9.23;;